Rio Chiquito, New Mexico
Current Conditions -  °F | °C
As of 12:55 PM on Friday 24 Oct 2014 (Local Time) from KSKX Reporting Station
Clear Clear  
Wind Chill: 66°   Ceiling: Unl
Heat Index: 66°   Visibility: 10mi
Dew Point: 30°   Wind: 0mph
Humidity: 26%   Direction: NA
Pressure: 30.39"   Gusts: NA
Location:  36.0272°N, 105.768°W
Report Text: KSKX 241855Z AUTO 00000KT 10SM CLR 19/M01 A3039 RMK AO1
Loading
Personal Weather Stations






























Interactive Weather Map
Tropical Storm Tracking
New forecast layout! Learn more

10-Day Weather Forecast

Advertisements
Track Severe Weather on mobile